DLH2NV EDDF-EGLL
Flight info
| Callsign | DLH2NV |
|---|---|
| Flight time | 1h 9m |
| Altitude | 36000 |
| Route | OBOKA3W/25C OBOKA Z29 TORNU DCT ABNED L980 LOGAN |
| Aircraft | A321/M-SDE3FGHIRWY/LB1 |
Departure
| Time | 2026-05-06 20:06 |
|---|---|
| Airport | Frankfurt Main Airport (EDDF) |
Arrival
| Time | 2026-05-06 21:15 |
|---|---|
| Airport | London Heathrow Airport (EGLL) |
| Time | Latitude | Longitude | Altitude | Speed | Heading |
|---|---|---|---|---|---|
| 2026-05-06 19:41 | 50.04653 | 8.56816 | 364 ft | 0 kts | 295° |
| 2026-05-06 19:50 | 50.04650 | 8.56828 | 364 ft | 2 kts | 295° |
| 2026-05-06 19:50 | 50.04644 | 8.56847 | 366 ft | 2 kts | 295° |
| 2026-05-06 19:50 | 50.04639 | 8.56864 | 362 ft | 1 kts | 295° |
| 2026-05-06 19:51 | 50.04652 | 8.56820 | 364 ft | 0 kts | 295° |
| 2026-05-06 19:57 | 50.04651 | 8.56822 | 356 ft | 2 kts | 295° |
| 2026-05-06 19:57 | 50.04645 | 8.56842 | 364 ft | 2 kts | 295° |
| 2026-05-06 19:58 | 50.04637 | 8.56876 | 364 ft | 4 kts | 265° |
| 2026-05-06 19:58 | 50.04645 | 8.56917 | 365 ft | 4 kts | 226° |
| 2026-05-06 19:58 | 50.04656 | 8.56934 | 363 ft | 0 kts | 206° |
| 2026-05-06 20:00 | 50.04655 | 8.56933 | 356 ft | 1 kts | 206° |
| 2026-05-06 20:00 | 50.04653 | 8.56932 | 356 ft | 0 kts | 204° |
| 2026-05-06 20:00 | 50.04650 | 8.56930 | 356 ft | 0 kts | 203° |
| 2026-05-06 20:00 | 50.04637 | 8.56924 | 361 ft | 5 kts | 197° |
| 2026-05-06 20:01 | 50.04587 | 8.56905 | 357 ft | 8 kts | 192° |
| 2026-05-06 20:01 | 50.04541 | 8.56889 | 359 ft | 7 kts | 193° |
| 2026-05-06 20:01 | 50.04464 | 8.56862 | 359 ft | 16 kts | 192° |
| 2026-05-06 20:01 | 50.04351 | 8.56827 | 360 ft | 17 kts | 191° |
| 2026-05-06 20:02 | 50.04285 | 8.56925 | 362 ft | 18 kts | 82° |
| 2026-05-06 20:02 | 50.04326 | 8.57112 | 364 ft | 18 kts | 71° |
| 2026-05-06 20:02 | 50.04372 | 8.57305 | 367 ft | 20 kts | 70° |
| 2026-05-06 20:02 | 50.04421 | 8.57510 | 363 ft | 21 kts | 70° |
| 2026-05-06 20:03 | 50.04470 | 8.57718 | 367 ft | 21 kts | 69° |
| 2026-05-06 20:03 | 50.04523 | 8.57932 | 366 ft | 22 kts | 69° |
| 2026-05-06 20:03 | 50.04572 | 8.58143 | 369 ft | 19 kts | 71° |
| 2026-05-06 20:03 | 50.04616 | 8.58330 | 371 ft | 18 kts | 69° |
| 2026-05-06 20:04 | 50.04652 | 8.58512 | 369 ft | 16 kts | 94° |
| 2026-05-06 20:04 | 50.04602 | 8.58584 | 369 ft | 4 kts | 159° |
| 2026-05-06 20:04 | 50.04573 | 8.58600 | 373 ft | 5 kts | 159° |
| 2026-05-06 20:04 | 50.04512 | 8.58619 | 371 ft | 14 kts | 196° |
| 2026-05-06 20:05 | 50.04476 | 8.58544 | 370 ft | 0 kts | 251° |
| 2026-05-06 20:05 | 50.04475 | 8.58538 | 370 ft | 3 kts | 251° |
| 2026-05-06 20:05 | 50.04401 | 8.58219 | 369 ft | 69 kts | 250° |
| 2026-05-06 20:06 | 50.04149 | 8.57171 | 368 ft | 135 kts | 250° |
| 2026-05-06 20:06 | 50.03765 | 8.55569 | 570 ft | 166 kts | 251° |
| 2026-05-06 20:06 | 50.03377 | 8.53936 | 1451 ft | 161 kts | 252° |
| 2026-05-06 20:06 | 50.02974 | 8.52258 | 1960 ft | 175 kts | 252° |
| 2026-05-06 20:07 | 50.02473 | 8.50404 | 2268 ft | 198 kts | 241° |
| 2026-05-06 20:07 | 50.01496 | 8.48819 | 2769 ft | 210 kts | 216° |
| 2026-05-06 20:07 | 50.00130 | 8.47976 | 3389 ft | 215 kts | 193° |
| 2026-05-06 20:07 | 49.98650 | 8.47638 | 4062 ft | 214 kts | 191° |
| 2026-05-06 20:08 | 49.97180 | 8.47324 | 4742 ft | 213 kts | 191° |
| 2026-05-06 20:08 | 49.95727 | 8.46922 | 5361 ft | 212 kts | 198° |
| 2026-05-06 20:08 | 49.94240 | 8.46244 | 5627 ft | 233 kts | 199° |
| 2026-05-06 20:08 | 49.92678 | 8.45412 | 6181 ft | 241 kts | 208° |
| 2026-05-06 20:09 | 49.91298 | 8.43957 | 6948 ft | 241 kts | 225° |
| 2026-05-06 20:09 | 49.90264 | 8.41920 | 7694 ft | 242 kts | 239° |
| 2026-05-06 20:09 | 49.89395 | 8.39662 | 8451 ft | 245 kts | 241° |
| 2026-05-06 20:09 | 49.88760 | 8.37196 | 9196 ft | 249 kts | 257° |
| 2026-05-06 20:10 | 49.88604 | 8.34458 | 9616 ft | 267 kts | 272° |
| 2026-05-06 20:10 | 49.88765 | 8.31528 | 10070 ft | 280 kts | 274° |
| 2026-05-06 20:10 | 49.89056 | 8.28421 | 10272 ft | 304 kts | 283° |
| 2026-05-06 20:10 | 49.89823 | 8.25240 | 10423 ft | 328 kts | 296° |
| 2026-05-06 20:11 | 49.91109 | 8.22171 | 10581 ft | 350 kts | 304° |
| 2026-05-06 20:11 | 49.92590 | 8.19108 | 11049 ft | 358 kts | 305° |
| 2026-05-06 20:11 | 49.94157 | 8.16067 | 11675 ft | 363 kts | 311° |
| 2026-05-06 20:11 | 49.96027 | 8.13395 | 12292 ft | 368 kts | 317° |
| 2026-05-06 20:12 | 49.97986 | 8.10799 | 12921 ft | 372 kts | 317° |
| 2026-05-06 20:12 | 49.99962 | 8.08164 | 13523 ft | 376 kts | 317° |
| 2026-05-06 20:12 | 50.01958 | 8.05498 | 14072 ft | 380 kts | 317° |
| 2026-05-06 20:12 | 50.03975 | 8.02810 | 14657 ft | 383 kts | 317° |
| 2026-05-06 20:13 | 50.06002 | 8.00094 | 15234 ft | 386 kts | 317° |
| 2026-05-06 20:13 | 50.08037 | 7.97349 | 15825 ft | 389 kts | 317° |
| 2026-05-06 20:13 | 50.10091 | 7.94583 | 16413 ft | 391 kts | 317° |
| 2026-05-06 20:13 | 50.12161 | 7.91809 | 16978 ft | 395 kts | 318° |
| 2026-05-06 20:14 | 50.14251 | 7.89008 | 17532 ft | 398 kts | 318° |
| 2026-05-06 20:14 | 50.16352 | 7.86170 | 18118 ft | 401 kts | 317° |
| 2026-05-06 20:14 | 50.18466 | 7.83306 | 18638 ft | 404 kts | 317° |
| 2026-05-06 20:14 | 50.20597 | 7.80424 | 19153 ft | 406 kts | 317° |
| 2026-05-06 20:15 | 50.22735 | 7.77528 | 19676 ft | 408 kts | 317° |
| 2026-05-06 20:15 | 50.24927 | 7.74762 | 20157 ft | 413 kts | 323° |
| 2026-05-06 20:15 | 50.27450 | 7.72459 | 20640 ft | 418 kts | 333° |
| 2026-05-06 20:15 | 50.30120 | 7.70606 | 21103 ft | 421 kts | 335° |
| 2026-05-06 20:16 | 50.32817 | 7.68778 | 21551 ft | 424 kts | 335° |
| 2026-05-06 20:16 | 50.35528 | 7.66925 | 21998 ft | 427 kts | 334° |
| 2026-05-06 20:16 | 50.38260 | 7.65053 | 22432 ft | 430 kts | 335° |
| 2026-05-06 20:16 | 50.40969 | 7.63202 | 22860 ft | 433 kts | 334° |
| 2026-05-06 20:17 | 50.43738 | 7.61294 | 23268 ft | 436 kts | 334° |
| 2026-05-06 20:17 | 50.46520 | 7.59366 | 23663 ft | 439 kts | 334° |
| 2026-05-06 20:17 | 50.49326 | 7.57441 | 24016 ft | 442 kts | 335° |
| 2026-05-06 20:17 | 50.52151 | 7.55495 | 24362 ft | 445 kts | 334° |
| 2026-05-06 20:18 | 50.54984 | 7.53509 | 24702 ft | 447 kts | 332° |
| 2026-05-06 20:18 | 50.57692 | 7.51081 | 25035 ft | 448 kts | 326° |
| 2026-05-06 20:18 | 50.60315 | 7.48399 | 25366 ft | 451 kts | 325° |
| 2026-05-06 20:18 | 50.62948 | 7.45680 | 25716 ft | 454 kts | 325° |
| 2026-05-06 20:19 | 50.65593 | 7.42963 | 26088 ft | 455 kts | 326° |
| 2026-05-06 20:19 | 50.68254 | 7.40219 | 26443 ft | 457 kts | 326° |
| 2026-05-06 20:19 | 50.70899 | 7.37421 | 26764 ft | 459 kts | 322° |
| 2026-05-06 20:19 | 50.73317 | 7.34126 | 27074 ft | 460 kts | 314° |
| 2026-05-06 20:20 | 50.74279 | 7.32546 | 27205 ft | 460 kts | 310° |
| 2026-05-06 20:20 | 50.75583 | 7.29955 | 27405 ft | 460 kts | 303° |
| 2026-05-06 20:20 | 50.77216 | 7.25615 | 27688 ft | 461 kts | 296° |
| 2026-05-06 20:20 | 50.78663 | 7.21079 | 27982 ft | 463 kts | 295° |
| 2026-05-06 20:21 | 50.80116 | 7.16554 | 28397 ft | 462 kts | 295° |
| 2026-05-06 20:21 | 50.81581 | 7.12036 | 28829 ft | 461 kts | 295° |
| 2026-05-06 20:21 | 50.83039 | 7.07533 | 29246 ft | 460 kts | 295° |
| 2026-05-06 20:21 | 50.84495 | 7.03031 | 29665 ft | 459 kts | 296° |
| 2026-05-06 20:22 | 50.85945 | 6.98527 | 30032 ft | 460 kts | 295° |
| 2026-05-06 20:22 | 50.87395 | 6.94021 | 30355 ft | 459 kts | 296° |
| 2026-05-06 20:22 | 50.88849 | 6.89527 | 30711 ft | 458 kts | 296° |
| 2026-05-06 20:22 | 50.90292 | 6.85034 | 31055 ft | 457 kts | 295° |
| 2026-05-06 20:23 | 50.91732 | 6.80545 | 31403 ft | 457 kts | 295° |
| 2026-05-06 20:23 | 50.93172 | 6.76068 | 31761 ft | 455 kts | 295° |
| 2026-05-06 20:23 | 50.94603 | 6.71585 | 32113 ft | 455 kts | 295° |
| 2026-05-06 20:23 | 50.96022 | 6.67118 | 32459 ft | 454 kts | 295° |
| 2026-05-06 20:24 | 50.97444 | 6.62649 | 32795 ft | 453 kts | 295° |
| 2026-05-06 20:24 | 50.98846 | 6.58244 | 33157 ft | 452 kts | 295° |
| 2026-05-06 20:24 | 51.00273 | 6.53748 | 33506 ft | 450 kts | 295° |
| 2026-05-06 20:24 | 51.01674 | 6.49309 | 33842 ft | 450 kts | 295° |
| 2026-05-06 20:25 | 51.03060 | 6.44939 | 34109 ft | 449 kts | 295° |
| 2026-05-06 20:25 | 51.04468 | 6.40512 | 34346 ft | 449 kts | 295° |
| 2026-05-06 20:25 | 51.05863 | 6.36078 | 34580 ft | 449 kts | 295° |
| 2026-05-06 20:25 | 51.07257 | 6.31635 | 34801 ft | 449 kts | 295° |
| 2026-05-06 20:26 | 51.08651 | 6.27203 | 35034 ft | 449 kts | 295° |
| 2026-05-06 20:26 | 51.10060 | 6.22694 | 35259 ft | 448 kts | 295° |
| 2026-05-06 20:26 | 51.11427 | 6.18309 | 35470 ft | 448 kts | 295° |
| 2026-05-06 20:26 | 51.12811 | 6.13862 | 35703 ft | 448 kts | 295° |
| 2026-05-06 20:27 | 51.14054 | 6.09333 | 35900 ft | 447 kts | 287° |
| 2026-05-06 20:27 | 51.14921 | 6.04583 | 35942 ft | 447 kts | 283° |
| 2026-05-06 20:27 | 51.16450 | 5.95000 | 35935 ft | 446 kts | 283° |
| 2026-05-06 20:28 | 51.18000 | 5.85419 | 35936 ft | 446 kts | 284° |
| 2026-05-06 20:28 | 51.20227 | 5.76170 | 35933 ft | 447 kts | 291° |
| 2026-05-06 20:29 | 51.22643 | 5.67054 | 35940 ft | 446 kts | 291° |
| 2026-05-06 20:29 | 51.25040 | 5.57932 | 35940 ft | 446 kts | 291° |
| 2026-05-06 20:30 | 51.28632 | 5.44217 | 35953 ft | 446 kts | 291° |
| 2026-05-06 20:31 | 51.31014 | 5.35052 | 35957 ft | 447 kts | 291° |
| 2026-05-06 20:31 | 51.32986 | 5.27422 | 35964 ft | 447 kts | 291° |
| 2026-05-06 20:32 | 51.35764 | 5.16681 | 35991 ft | 447 kts | 291° |
| 2026-05-06 20:32 | 51.37731 | 5.09036 | 35989 ft | 447 kts | 291° |
| 2026-05-06 20:33 | 51.40091 | 4.99832 | 35990 ft | 447 kts | 291° |
| 2026-05-06 20:33 | 51.42436 | 4.90621 | 35993 ft | 447 kts | 291° |
| 2026-05-06 20:34 | 51.44781 | 4.81396 | 35993 ft | 446 kts | 291° |
| 2026-05-06 20:34 | 51.47114 | 4.72177 | 35998 ft | 446 kts | 291° |
| 2026-05-06 20:35 | 51.49445 | 4.62959 | 35996 ft | 446 kts | 291° |
| 2026-05-06 20:35 | 51.51739 | 4.53791 | 35995 ft | 445 kts | 291° |
| 2026-05-06 20:36 | 51.54067 | 4.44511 | 35993 ft | 445 kts | 291° |
| 2026-05-06 20:36 | 51.56355 | 4.35282 | 35990 ft | 444 kts | 290° |
| 2026-05-06 20:37 | 51.58631 | 4.26112 | 35984 ft | 444 kts | 291° |
| 2026-05-06 20:37 | 51.60912 | 4.16878 | 35982 ft | 444 kts | 290° |
| 2026-05-06 20:38 | 51.63186 | 4.07638 | 35982 ft | 444 kts | 290° |
| 2026-05-06 20:38 | 51.65447 | 3.98387 | 35980 ft | 444 kts | 290° |
| 2026-05-06 20:39 | 51.67712 | 3.89127 | 35978 ft | 444 kts | 290° |
| 2026-05-06 20:39 | 51.69961 | 3.79848 | 35984 ft | 444 kts | 290° |
| 2026-05-06 20:40 | 51.72204 | 3.70560 | 35986 ft | 445 kts | 290° |
| 2026-05-06 20:40 | 51.74441 | 3.61263 | 35989 ft | 445 kts | 290° |
| 2026-05-06 20:41 | 51.76673 | 3.51952 | 36001 ft | 444 kts | 290° |
| 2026-05-06 20:41 | 51.78873 | 3.42704 | 35969 ft | 439 kts | 290° |
| 2026-05-06 20:42 | 51.81045 | 3.33534 | 35972 ft | 435 kts | 290° |
| 2026-05-06 20:42 | 51.83206 | 3.24441 | 35975 ft | 434 kts | 290° |
| 2026-05-06 20:43 | 51.84560 | 3.14986 | 35974 ft | 434 kts | 272° |
| 2026-05-06 20:43 | 51.84172 | 3.05274 | 35983 ft | 432 kts | 263° |
| 2026-05-06 20:44 | 51.83521 | 2.95621 | 35980 ft | 432 kts | 264° |
| 2026-05-06 20:44 | 51.82886 | 2.85957 | 35989 ft | 433 kts | 264° |
| 2026-05-06 20:45 | 51.82232 | 2.76274 | 35993 ft | 434 kts | 264° |
| 2026-05-06 20:45 | 51.81575 | 2.66585 | 35996 ft | 434 kts | 263° |
| 2026-05-06 20:46 | 51.80909 | 2.56886 | 36006 ft | 435 kts | 263° |
| 2026-05-06 20:46 | 51.80236 | 2.47178 | 35832 ft | 433 kts | 263° |
| 2026-05-06 20:46 | 51.79897 | 2.42358 | 35585 ft | 431 kts | 263° |
| 2026-05-06 20:47 | 51.79555 | 2.37548 | 35335 ft | 431 kts | 263° |
| 2026-05-06 20:47 | 51.79206 | 2.32741 | 35096 ft | 431 kts | 263° |
| 2026-05-06 20:47 | 51.78862 | 2.27935 | 34847 ft | 431 kts | 263° |
| 2026-05-06 20:47 | 51.78518 | 2.23131 | 34598 ft | 431 kts | 263° |
| 2026-05-06 20:48 | 51.78209 | 2.18317 | 34360 ft | 432 kts | 265° |
| 2026-05-06 20:48 | 51.77940 | 2.13493 | 33958 ft | 431 kts | 265° |
| 2026-05-06 20:48 | 51.77657 | 2.08645 | 32989 ft | 436 kts | 265° |
| 2026-05-06 20:48 | 51.77373 | 2.03785 | 32274 ft | 435 kts | 264° |
| 2026-05-06 20:49 | 51.77082 | 1.98923 | 31473 ft | 436 kts | 264° |
| 2026-05-06 20:49 | 51.76794 | 1.94040 | 30647 ft | 438 kts | 264° |
| 2026-05-06 20:49 | 51.76494 | 1.89126 | 29746 ft | 441 kts | 264° |
| 2026-05-06 20:49 | 51.76196 | 1.84198 | 28828 ft | 441 kts | 264° |
| 2026-05-06 20:50 | 51.75891 | 1.79283 | 27942 ft | 441 kts | 264° |
| 2026-05-06 20:50 | 51.75584 | 1.74422 | 27016 ft | 442 kts | 264° |
| 2026-05-06 20:50 | 51.75266 | 1.69419 | 26089 ft | 442 kts | 264° |
| 2026-05-06 20:50 | 51.74964 | 1.64509 | 25455 ft | 437 kts | 264° |
| 2026-05-06 20:51 | 51.74666 | 1.59663 | 24811 ft | 432 kts | 264° |
| 2026-05-06 20:51 | 51.74360 | 1.54830 | 24162 ft | 434 kts | 264° |
| 2026-05-06 20:51 | 51.74046 | 1.50006 | 23505 ft | 431 kts | 264° |
| 2026-05-06 20:51 | 51.73734 | 1.45215 | 22785 ft | 428 kts | 264° |
| 2026-05-06 20:52 | 51.73429 | 1.40463 | 22178 ft | 424 kts | 264° |
| 2026-05-06 20:52 | 51.73119 | 1.35751 | 21531 ft | 421 kts | 264° |
| 2026-05-06 20:52 | 51.72810 | 1.31080 | 20901 ft | 417 kts | 264° |
| 2026-05-06 20:52 | 51.72507 | 1.26452 | 20282 ft | 413 kts | 264° |
| 2026-05-06 20:53 | 51.72212 | 1.21854 | 19662 ft | 410 kts | 264° |
| 2026-05-06 20:53 | 51.71910 | 1.17313 | 19047 ft | 406 kts | 264° |
| 2026-05-06 20:53 | 51.71608 | 1.12862 | 18458 ft | 403 kts | 264° |
| 2026-05-06 20:53 | 51.71308 | 1.08327 | 17786 ft | 399 kts | 264° |
| 2026-05-06 20:54 | 51.71004 | 1.03952 | 17194 ft | 397 kts | 264° |
| 2026-05-06 20:54 | 51.70699 | 0.99548 | 16593 ft | 394 kts | 264° |
| 2026-05-06 20:54 | 51.70400 | 0.95184 | 16019 ft | 391 kts | 264° |
| 2026-05-06 20:54 | 51.70103 | 0.90833 | 15535 ft | 390 kts | 264° |
| 2026-05-06 20:55 | 51.69804 | 0.86500 | 15065 ft | 388 kts | 264° |
| 2026-05-06 20:55 | 51.69500 | 0.82187 | 14583 ft | 386 kts | 264° |
| 2026-05-06 20:55 | 51.69200 | 0.77899 | 14106 ft | 384 kts | 264° |
| 2026-05-06 20:55 | 51.68890 | 0.73632 | 13608 ft | 382 kts | 264° |
| 2026-05-06 20:56 | 51.68588 | 0.69398 | 13110 ft | 379 kts | 264° |
| 2026-05-06 20:56 | 51.68295 | 0.65222 | 12648 ft | 370 kts | 264° |
| 2026-05-06 20:56 | 51.68005 | 0.61150 | 12195 ft | 361 kts | 264° |
| 2026-05-06 20:56 | 51.67711 | 0.57185 | 11755 ft | 352 kts | 264° |
| 2026-05-06 20:57 | 51.67428 | 0.53319 | 11314 ft | 344 kts | 264° |
| 2026-05-06 20:57 | 51.67150 | 0.49532 | 10897 ft | 338 kts | 264° |
| 2026-05-06 20:57 | 51.66881 | 0.45840 | 10570 ft | 320 kts | 265° |
| 2026-05-06 20:57 | 51.66636 | 0.42435 | 10299 ft | 295 kts | 265° |
| 2026-05-06 20:58 | 51.66405 | 0.39218 | 9731 ft | 286 kts | 264° |
| 2026-05-06 20:58 | 51.66172 | 0.36048 | 9355 ft | 283 kts | 264° |
| 2026-05-06 20:58 | 51.65940 | 0.32912 | 9016 ft | 281 kts | 264° |
| 2026-05-06 20:58 | 51.65709 | 0.29803 | 8673 ft | 279 kts | 264° |
| 2026-05-06 20:59 | 51.65478 | 0.26717 | 8329 ft | 277 kts | 263° |
| 2026-05-06 20:59 | 51.65242 | 0.23657 | 8049 ft | 272 kts | 263° |
| 2026-05-06 20:59 | 51.65018 | 0.20713 | 8034 ft | 257 kts | 263° |
| 2026-05-06 20:59 | 51.64828 | 0.17928 | 8039 ft | 247 kts | 266° |
| 2026-05-06 21:00 | 51.64713 | 0.15174 | 8037 ft | 246 kts | 266° |
| 2026-05-06 21:00 | 51.64598 | 0.12433 | 8046 ft | 246 kts | 266° |
| 2026-05-06 21:00 | 51.64483 | 0.09688 | 8054 ft | 246 kts | 266° |
| 2026-05-06 21:00 | 51.64368 | 0.06948 | 8046 ft | 246 kts | 266° |
| 2026-05-06 21:01 | 51.64247 | 0.04129 | 8057 ft | 246 kts | 266° |
| 2026-05-06 21:01 | 51.64134 | 0.01460 | 8050 ft | 245 kts | 266° |
| 2026-05-06 21:01 | 51.64017 | -0.01281 | 8054 ft | 245 kts | 266° |
| 2026-05-06 21:01 | 51.63869 | -0.04000 | 8050 ft | 243 kts | 266° |
| 2026-05-06 21:02 | 51.63714 | -0.06708 | 8050 ft | 243 kts | 266° |
| 2026-05-06 21:02 | 51.63565 | -0.09423 | 8051 ft | 243 kts | 266° |
| 2026-05-06 21:02 | 51.63421 | -0.12137 | 8052 ft | 243 kts | 267° |
| 2026-05-06 21:02 | 51.63261 | -0.14844 | 8052 ft | 243 kts | 265° |
| 2026-05-06 21:03 | 51.63106 | -0.17554 | 8059 ft | 243 kts | 266° |
| 2026-05-06 21:03 | 51.62948 | -0.20260 | 8060 ft | 243 kts | 266° |
| 2026-05-06 21:03 | 51.62778 | -0.22957 | 8060 ft | 242 kts | 266° |
| 2026-05-06 21:03 | 51.62613 | -0.25659 | 8061 ft | 243 kts | 266° |
| 2026-05-06 21:04 | 51.62457 | -0.28366 | 8050 ft | 243 kts | 266° |
| 2026-05-06 21:04 | 51.62297 | -0.31069 | 8060 ft | 243 kts | 265° |
| 2026-05-06 21:04 | 51.62145 | -0.33776 | 8032 ft | 243 kts | 266° |
| 2026-05-06 21:04 | 51.61991 | -0.36463 | 7726 ft | 241 kts | 266° |
| 2026-05-06 21:05 | 51.61844 | -0.39143 | 7319 ft | 240 kts | 266° |
| 2026-05-06 21:05 | 51.61690 | -0.41802 | 6938 ft | 238 kts | 266° |
| 2026-05-06 21:05 | 51.61547 | -0.44452 | 6556 ft | 237 kts | 266° |
| 2026-05-06 21:05 | 51.61402 | -0.47092 | 6158 ft | 236 kts | 266° |
| 2026-05-06 21:06 | 51.61255 | -0.49716 | 5775 ft | 235 kts | 266° |
| 2026-05-06 21:06 | 51.61107 | -0.52328 | 5383 ft | 234 kts | 266° |
| 2026-05-06 21:06 | 51.60973 | -0.54922 | 5063 ft | 232 kts | 266° |
| 2026-05-06 21:06 | 51.60833 | -0.57514 | 5009 ft | 233 kts | 266° |
| 2026-05-06 21:07 | 51.60693 | -0.60133 | 5014 ft | 234 kts | 266° |
| 2026-05-06 21:07 | 51.60563 | -0.62723 | 5006 ft | 234 kts | 266° |
| 2026-05-06 21:07 | 51.60430 | -0.65320 | 4911 ft | 232 kts | 266° |
| 2026-05-06 21:07 | 51.60290 | -0.67896 | 4494 ft | 231 kts | 266° |
| 2026-05-06 21:08 | 51.60144 | -0.70468 | 4114 ft | 230 kts | 266° |
| 2026-05-06 21:08 | 51.59997 | -0.73031 | 4010 ft | 231 kts | 266° |
| 2026-05-06 21:08 | 51.59831 | -0.75608 | 4010 ft | 232 kts | 266° |
| 2026-05-06 21:08 | 51.59647 | -0.78186 | 4008 ft | 233 kts | 260° |
| 2026-05-06 21:09 | 51.58922 | -0.80499 | 4021 ft | 236 kts | 227° |
| 2026-05-06 21:09 | 51.57559 | -0.81886 | 3751 ft | 234 kts | 196° |
| 2026-05-06 21:09 | 51.55949 | -0.82133 | 3365 ft | 233 kts | 181° |
| 2026-05-06 21:09 | 51.54333 | -0.82190 | 3063 ft | 232 kts | 181° |
| 2026-05-06 21:10 | 51.52735 | -0.82253 | 3010 ft | 223 kts | 181° |
| 2026-05-06 21:10 | 51.51242 | -0.82319 | 2999 ft | 206 kts | 181° |
| 2026-05-06 21:10 | 51.49854 | -0.82143 | 2997 ft | 197 kts | 157° |
| 2026-05-06 21:10 | 51.48747 | -0.80925 | 3018 ft | 192 kts | 131° |
| 2026-05-06 21:11 | 51.48020 | -0.79161 | 3022 ft | 189 kts | 111° |
| 2026-05-06 21:11 | 51.47673 | -0.77148 | 3023 ft | 187 kts | 95° |
| 2026-05-06 21:11 | 51.47611 | -0.75080 | 3026 ft | 185 kts | 88° |
| 2026-05-06 21:11 | 51.47624 | -0.73010 | 3023 ft | 186 kts | 87° |
| 2026-05-06 21:12 | 51.47636 | -0.70942 | 2897 ft | 185 kts | 87° |
| 2026-05-06 21:12 | 51.47647 | -0.68884 | 2672 ft | 184 kts | 87° |
| 2026-05-06 21:12 | 51.47659 | -0.66836 | 2425 ft | 183 kts | 87° |
| 2026-05-06 21:12 | 51.47670 | -0.64805 | 2174 ft | 182 kts | 86° |
| 2026-05-06 21:13 | 51.47681 | -0.62789 | 1933 ft | 179 kts | 86° |
| 2026-05-06 21:13 | 51.47690 | -0.60853 | 1712 ft | 167 kts | 87° |
| 2026-05-06 21:13 | 51.47699 | -0.59020 | 1470 ft | 162 kts | 87° |
| 2026-05-06 21:13 | 51.47708 | -0.57220 | 1234 ft | 159 kts | 86° |
| 2026-05-06 21:14 | 51.47716 | -0.55523 | 1007 ft | 147 kts | 87° |
| 2026-05-06 21:14 | 51.47723 | -0.53920 | 803 ft | 141 kts | 86° |
| 2026-05-06 21:14 | 51.47731 | -0.52359 | 607 ft | 139 kts | 88° |
| 2026-05-06 21:14 | 51.47741 | -0.50817 | 412 ft | 138 kts | 88° |
| 2026-05-06 21:15 | 51.47750 | -0.49281 | 226 ft | 138 kts | 88° |
| 2026-05-06 21:15 | 51.47751 | -0.47757 | 86 ft | 130 kts | 88° |
| 2026-05-06 21:15 | 51.47755 | -0.46526 | 94 ft | 94 kts | 90° |
| 2026-05-06 21:15 | 51.47759 | -0.45775 | 85 ft | 45 kts | 90° |
| 2026-05-06 21:16 | 51.47704 | -0.45475 | 87 ft | 18 kts | 155° |
| 2026-05-06 21:16 | 51.47618 | -0.45483 | 86 ft | 6 kts | 197° |
| 2026-05-06 21:16 | 51.47593 | -0.45518 | 89 ft | 5 kts | 265° |
| 2026-05-06 21:16 | 51.47596 | -0.45596 | 88 ft | 9 kts | 273° |
| 2026-05-06 21:17 | 51.47591 | -0.45708 | 88 ft | 11 kts | 247° |
| 2026-05-06 21:17 | 51.47525 | -0.45710 | 86 ft | 12 kts | 127° |
| 2026-05-06 21:17 | 51.47510 | -0.45617 | 89 ft | 14 kts | 95° |
| 2026-05-06 21:17 | 51.47508 | -0.45452 | 86 ft | 16 kts | 90° |
| 2026-05-06 21:18 | 51.47507 | -0.45261 | 86 ft | 18 kts | 90° |
| 2026-05-06 21:18 | 51.47506 | -0.45048 | 88 ft | 20 kts | 90° |
| 2026-05-06 21:18 | 51.47508 | -0.44813 | 88 ft | 22 kts | 87° |
| 2026-05-06 21:18 | 51.47478 | -0.44582 | 88 ft | 23 kts | 147° |
| 2026-05-06 21:19 | 51.47319 | -0.44562 | 87 ft | 24 kts | 175° |
| 2026-05-06 21:19 | 51.47151 | -0.44554 | 85 ft | 25 kts | 180° |
| 2026-05-06 21:19 | 51.47047 | -0.44572 | 88 ft | 9 kts | 224° |
| 2026-05-06 21:19 | 51.47038 | -0.44671 | 85 ft | 4 kts | 269° |
| 2026-05-06 21:20 | 51.47038 | -0.44676 | 85 ft | 0 kts | 269° |